Time;durP1;ratioP1;P1;durP2;ratioP2;P2;SDS_P1;SDS_P2;PMS_P1;PMS_P2;Temp;Humidity;BMP_temperature;BMP_pressure;BME280_temperature;BME280_humidity;BME280_pressure;Samples;Min_cycle;Max_cycle;Signal;HPM_P1;HPM_P2
2023/10/23 00:01:35;;;;;;;27.00;9.93;;;;;;;10.15;100.00;97782.47;5158769;27;20046;-62
2023/10/23 00:04:01;;;;;;;40.58;10.63;;;;;;;10.32;100.00;97791.84;5158477;27;20054;-62
2023/10/23 00:06:27;;;;;;;42.50;10.50;;;;;;;10.09;100.00;97800.50;5158474;27;20050;-62
2023/10/23 00:08:53;;;;;;;30.05;9.52;;;;;;;10.33;100.00;97787.97;5158329;27;20043;-62
2023/10/23 00:11:22;;;;;;;40.25;9.32;;;;;;;10.31;100.00;97790.31;5158014;27;20051;-62
2023/10/23 00:13:48;;;;;;;29.55;9.88;;;;;;;10.30;100.00;97795.00;5158213;27;20141;-62
2023/10/23 00:16:14;;;;;;;26.65;9.82;;;;;;;10.22;100.00;97796.16;5158038;27;20423;-62
2023/10/23 00:18:40;;;;;;;22.77;9.60;;;;;;;10.30;100.00;97788.75;5158242;27;20191;-62
2023/10/23 00:21:08;;;;;;;24.45;10.30;;;;;;;10.44;100.00;97796.13;5158092;27;20206;-62
2023/10/23 00:23:34;;;;;;;24.48;9.35;;;;;;;10.36;100.00;97785.22;5158293;27;20430;-62
2023/10/23 00:26:00;;;;;;;20.08;8.70;;;;;;;10.31;100.00;97784.81;5157928;27;20047;-62
2023/10/23 00:28:26;;;;;;;18.55;8.45;;;;;;;10.29;100.00;97790.69;5158370;27;20519;-62
2023/10/23 00:30:52;;;;;;;20.52;9.60;;;;;;;10.48;100.00;97783.19;5157730;27;20137;-62
2023/10/23 00:33:18;;;;;;;19.80;8.40;;;;;;;10.40;100.00;97784.41;5158166;27;20062;-62
2023/10/23 00:35:43;;;;;;;22.88;8.75;;;;;;;10.42;100.00;97793.00;5157834;27;20046;-62
2023/10/23 00:38:10;;;;;;;19.30;9.18;;;;;;;10.59;100.00;97792.91;5157843;27;20042;-62
2023/10/23 00:40:36;;;;;;;21.08;9.48;;;;;;;10.73;100.00;97791.28;5158066;27;20137;-62
2023/10/23 00:43:12;;;;;;;19.67;8.93;;;;;;;10.81;100.00;97790.88;5157630;27;20531;-62
2023/10/23 00:45:43;;;;;;;14.85;8.10;;;;;;;10.71;100.00;97779.97;5157937;27;20050;-62
2023/10/23 00:48:09;;;;;;;16.70;8.10;;;;;;;10.78;100.00;97785.41;5157621;27;20089;-62
2023/10/23 00:50:35;;;;;;;19.38;8.77;;;;;;;10.71;100.00;97782.72;5157974;27;20055;-62
2023/10/23 00:53:01;;;;;;;20.08;8.43;;;;;;;10.76;100.00;97788.56;5157517;27;20050;-62
2023/10/23 00:55:28;;;;;;;23.20;8.98;;;;;;;10.72;100.00;97779.56;5157966;27;20111;-62
2023/10/23 00:57:54;;;;;;;15.65;7.90;;;;;;;10.69;100.00;97780.34;5157408;27;20137;-62
2023/10/23 01:00:20;;;;;;;21.77;8.95;;;;;;;10.74;100.00;97784.66;5157638;27;20054;-62
2023/10/23 01:02:46;;;;;;;21.83;8.15;;;;;;;10.70;100.00;97781.16;5157504;27;20058;-62
2023/10/23 01:05:12;;;;;;;13.35;7.72;;;;;;;10.61;100.00;97776.09;5157604;27;20195;-62
2023/10/23 01:07:38;;;;;;;14.27;8.13;;;;;;;10.59;100.00;97781.19;5157698;27;20108;-62
2023/10/23 01:10:05;;;;;;;30.60;8.75;;;;;;;10.78;100.00;97783.44;5157317;27;20495;-62
2023/10/23 01:12:31;;;;;;;28.48;8.50;;;;;;;10.78;100.00;97777.97;5157681;27;20046;-62
2023/10/23 01:14:57;;;;;;;18.40;8.45;;;;;;;10.73;100.00;97772.09;5157437;27;20078;-62
2023/10/23 01:17:23;;;;;;;13.45;7.70;;;;;;;10.56;100.00;97774.56;5157543;27;20385;-62
2023/10/23 01:19:49;;;;;;;18.30;8.88;;;;;;;10.56;100.00;97773.75;5157164;27;20141;-62
2023/10/23 01:22:15;;;;;;;14.32;8.05;;;;;;;10.55;100.00;97778.47;5157664;27;20046;-62
2023/10/23 01:24:45;;;;;;;17.77;7.68;;;;;;;10.59;100.00;97781.19;5157117;27;20130;-62
2023/10/23 01:27:11;;;;;;;14.52;8.13;;;;;;;10.57;100.00;97778.06;5157100;27;20348;-62
2023/10/23 01:29:37;;;;;;;18.13;7.30;;;;;;;10.54;100.00;97781.59;5157526;27;20054;-62
2023/10/23 01:32:04;;;;;;;23.95;8.07;;;;;;;10.52;100.00;97784.72;5160844;27;20097;-62
2023/10/23 01:34:30;;;;;;;11.73;7.03;;;;;;;10.53;100.00;97780.84;5160932;27;20046;-62
2023/10/23 01:36:55;;;;;;;18.92;7.75;;;;;;;10.55;100.00;97783.94;5160523;27;20057;-62
2023/10/23 01:39:22;;;;;;;24.08;7.75;;;;;;;10.55;100.00;97783.16;5160837;27;20051;-62
2023/10/23 01:41:48;;;;;;;14.43;7.00;;;;;;;10.62;100.00;97782.34;5160551;27;20062;-62
2023/10/23 01:44:14;;;;;;;63.75;12.32;;;;;;;10.65;100.00;97781.56;5160769;27;20408;-62
2023/10/23 01:46:40;;;;;;;26.95;9.50;;;;;;;10.59;100.00;97783.91;5160455;27;20051;-62
2023/10/23 01:49:06;;;;;;;16.67;7.78;;;;;;;10.65;100.00;97781.56;5160876;27;20058;-62
2023/10/23 01:51:32;;;;;;;18.58;7.82;;;;;;;10.60;100.00;97786.28;5160341;27;20047;-62
2023/10/23 01:53:58;;;;;;;52.97;8.80;;;;;;;10.61;100.00;97784.31;5160842;27;20133;-62
2023/10/23 01:56:24;;;;;;;14.65;7.47;;;;;;;10.57;100.00;97789.03;5160198;27;20054;-62
2023/10/23 01:58:51;;;;;;;11.35;7.25;;;;;;;10.60;100.00;97785.50;5160110;27;20480;-62
2023/10/23 02:01:22;;;;;;;13.73;7.22;;;;;;;10.66;100.00;97792.09;5160286;27;20332;-62
2023/10/23 02:03:47;;;;;;;31.92;8.35;;;;;;;10.64;100.00;97788.22;5160361;27;20062;-62
2023/10/23 02:06:13;;;;;;;124.95;9.68;;;;;;;10.64;100.00;97789.00;5160198;27;20050;-62
2023/10/23 02:08:39;;;;;;;11.73;7.05;;;;;;;10.56;100.00;97790.19;5160041;27;20068;-62
2023/10/23 02:11:07;;;;;;;19.13;6.63;;;;;;;10.62;100.00;97793.31;5160413;27;20047;-62
2023/10/23 02:13:33;;;;;;;12.43;6.80;;;;;;;10.63;100.00;97795.66;5160177;27;20055;-62
2023/10/23 02:15:59;;;;;;;18.60;7.50;;;;;;;10.64;100.00;97788.22;5160438;27;20046;-62
2023/10/23 02:18:25;;;;;;;36.33;7.88;;;;;;;10.64;100.00;97796.44;5159877;27;20078;-62
2023/10/23 02:20:51;;;;;;;11.90;6.88;;;;;;;10.68;100.00;97791.72;5160391;27;20106;-62
2023/10/23 02:23:17;;;;;;;148.52;19.92;;;;;;;10.72;100.00;97795.22;5159784;27;20055;-63
2023/10/23 02:25:43;;;;;;;19.83;7.32;;;;;;;10.71;100.00;97791.69;5160253;27;20141;-62
2023/10/23 02:28:09;;;;;;;11.48;6.50;;;;;;;10.55;100.00;97791.38;5160024;27;20046;-62
2023/10/23 02:30:36;;;;;;;11.48;5.63;;;;;;;10.55;100.00;97797.63;5159880;27;20332;-62
2023/10/23 02:33:02;;;;;;;16.10;6.72;;;;;;;10.56;100.00;97801.97;5160024;27;20133;-62
2023/10/23 02:35:28;;;;;;;10.70;6.22;;;;;;;10.49;100.00;97801.97;5159820;27;20137;-62
2023/10/23 02:37:54;;;;;;;10.40;6.72;;;;;;;10.44;100.00;97813.34;5159966;27;20042;-62
2023/10/23 02:40:21;;;;;;;11.70;6.13;;;;;;;10.43;100.00;97802.78;5159593;27;20090;-62
2023/10/23 02:42:47;;;;;;;13.55;6.05;;;;;;;10.52;100.00;97808.63;5158709;27;20062;-62
2023/10/23 02:45:15;;;;;;;8.90;6.10;;;;;;;10.37;100.00;97810.63;5159620;27;20085;-62
2023/10/23 02:47:40;;;;;;;13.85;6.40;;;;;;;10.43;100.00;97811.00;5159903;27;20316;-63
2023/10/23 02:50:07;;;;;;;11.25;6.07;;;;;;;10.40;100.00;97815.31;5159477;27;20046;-62
2023/10/23 02:52:35;;;;;;;16.70;6.25;;;;;;;10.43;100.00;97819.22;5159911;27;20042;-62
2023/10/23 02:55:00;;;;;;;9.75;6.00;;;;;;;10.46;100.00;97829.38;5159328;27;20046;-62
2023/10/23 02:57:26;;;;;;;9.77;5.88;;;;;;;10.37;100.00;97821.59;5159533;27;20119;-62
2023/10/23 02:59:52;;;;;;;8.85;5.53;;;;;;;10.26;100.00;97818.88;5159435;27;20078;-62
2023/10/23 03:02:18;;;;;;;7.57;5.38;;;;;;;10.33;100.00;97820.81;5159190;27;20365;-62
2023/10/23 03:04:44;;;;;;;6.00;4.45;;;;;;;10.25;100.00;97830.97;5159503;27;20043;-62
2023/10/23 03:07:10;;;;;;;6.18;4.25;;;;;;;10.30;100.00;97827.88;5159238;27;20107;-63
2023/10/23 03:09:37;;;;;;;6.40;4.47;;;;;;;10.30;100.00;97827.88;5159490;27;20082;-63
2023/10/23 03:12:04;;;;;;;3.97;3.25;;;;;;;10.32;100.00;97836.47;5158980;27;20078;-62
2023/10/23 03:14:30;;;;;;;9.23;3.58;;;;;;;10.41;100.00;97833.31;5159416;27;20373;-62
2023/10/23 03:16:55;;;;;;;7.38;2.50;;;;;;;10.26;100.00;97840.81;5158973;27;20042;-62
2023/10/23 03:19:25;;;;;;;5.47;2.33;;;;;;;10.25;100.00;97847.41;5159395;27;20062;-62
2023/10/23 03:21:51;;;;;;;2.25;1.63;;;;;;;10.08;100.00;97849.00;5158914;27;20127;-62
2023/10/23 03:24:18;;;;;;;5.07;1.90;;;;;;;10.12;100.00;97854.47;5159134;27;20330;-62
2023/10/23 03:26:44;;;;;;;3.15;1.55;;;;;;;10.10;100.00;97856.84;5158791;27;20376;-62
2023/10/23 03:29:10;;;;;;;14.70;1.40;;;;;;;10.05;100.00;97868.94;5159010;27;20134;-62
2023/10/23 03:31:36;;;;;;;7.47;1.65;;;;;;;9.86;100.00;97872.91;5158813;27;20092;-62
2023/10/23 03:34:02;;;;;;;2.65;1.50;;;;;;;9.84;100.00;97872.50;5158707;27;20107;-62
2023/10/23 03:36:28;;;;;;;1.70;1.60;;;;;;;10.03;100.00;97876.00;5158858;27;20103;-62
2023/10/23 03:38:54;;;;;;;1.90;1.70;;;;;;;9.63;100.00;97878.75;5158722;27;20082;-62
2023/10/23 03:41:20;;;;;;;7.53;1.80;;;;;;;9.82;100.00;97874.81;5158953;27;20145;-62
2023/10/23 03:43:47;;;;;;;4.40;2.10;;;;;;;9.90;100.00;97881.88;5158617;27;20480;-62
2023/10/23 03:46:13;;;;;;;1.95;1.73;;;;;;;9.96;100.00;97876.78;5158944;27;20362;-62
2023/10/23 03:48:39;;;;;;;3.15;2.00;;;;;;;9.94;100.00;97879.13;5158426;27;20430;-62
2023/10/23 03:51:05;;;;;;;10.23;3.63;;;;;;;9.88;100.00;97881.47;5159041;27;20050;-62
2023/10/23 03:53:31;;;;;;;10.60;3.10;;;;;;;9.97;100.00;97880.31;5157940;27;20056;-62
2023/10/23 03:55:57;;;;;;;16.02;3.58;;;;;;;10.04;100.00;97885.78;5158334;27;20117;-62
2023/10/23 03:58:23;;;;;;;3.53;2.08;;;;;;;10.03;100.00;97886.94;5158552;27;20149;-62
2023/10/23 04:00:52;;;;;;;4.53;2.05;;;;;;;10.07;100.00;97895.97;5158488;27;20059;-63
2023/10/23 04:03:18;;;;;;;2.70;2.25;;;;;;;10.12;100.00;97901.81;5158636;27;20099;-62
2023/10/23 04:05:43;;;;;;;3.20;2.72;;;;;;;10.00;100.00;97904.97;5158365;27;20050;-62
2023/10/23 04:08:09;;;;;;;71.72;9.18;;;;;;;9.89;100.00;97910.41;5158589;27;20295;-62
2023/10/23 04:10:35;;;;;;;19.30;3.85;;;;;;;9.80;100.00;97906.53;5158236;27;20103;-63
2023/10/23 04:13:02;;;;;;;7.85;2.88;;;;;;;10.04;100.00;97913.94;5158497;27;20056;-62
2023/10/23 04:15:28;;;;;;;35.30;6.63;;;;;;;10.00;100.00;97912.38;5158114;27;20047;-62
2023/10/23 04:17:55;;;;;;;4.07;3.03;;;;;;;9.88;100.00;97919.81;5158528;27;20141;-62
2023/10/23 04:20:21;;;;;;;15.90;4.00;;;;;;;9.86;100.00;97915.88;5157868;27;20258;-62
2023/10/23 04:22:47;;;;;;;6.40;3.42;;;;;;;9.67;100.00;97914.31;5158392;27;20095;-62
2023/10/23 04:25:12;;;;;;;20.05;3.97;;;;;;;9.72;100.00;97924.88;5158215;27;20089;-63
2023/10/23 04:27:38;;;;;;;44.47;7.30;;;;;;;9.66;100.00;97924.50;5157736;27;20126;-62
2023/10/23 04:30:05;;;;;;;1.75;1.65;;;;;;;9.61;100.00;97935.03;5158182;27;20141;-62
2023/10/23 04:32:31;;;;;;;4.82;2.53;;;;;;;9.44;100.00;97947.50;5157943;27;20098;-62
2023/10/23 04:34:58;;;;;;;7.22;3.10;;;;;;;9.49;100.00;97952.56;5158154;27;20379;-62
2023/10/23 04:37:24;;;;;;;30.08;4.97;;;;;;;9.51;100.00;97952.97;5157871;27;20195;-62
2023/10/23 04:39:50;;;;;;;8.20;2.30;;;;;;;9.25;100.00;97962.28;5157809;27;20054;-62
2023/10/23 04:42:16;;;;;;;3.65;1.63;;;;;;;9.19;100.00;97963.81;5157591;27;20334;-62
2023/10/23 04:44:42;;;;;;;2.40;1.73;;;;;;;8.98;100.00;97964.50;5157928;27;20055;-62
2023/10/23 04:47:08;;;;;;;20.77;4.95;;;;;;;9.08;100.00;97963.00;5157473;27;20054;-62
2023/10/23 04:49:34;;;;;;;3.92;1.73;;;;;;;9.14;100.00;97972.41;5157973;27;20055;-62
2023/10/23 04:52:00;;;;;;;1.95;1.05;;;;;;;9.15;100.00;97971.22;5157511;27;20043;-62
2023/10/23 04:54:26;;;;;;;1.20;1.10;;;;;;;9.22;100.00;97986.88;5157685;27;20057;-62
2023/10/23 04:56:52;;;;;;;1.33;0.93;;;;;;;9.21;100.00;97988.81;5157760;27;20137;-62
2023/10/23 04:59:18;;;;;;;6.95;1.73;;;;;;;9.24;100.00;98004.47;5157508;27;20427;-62
2023/10/23 05:01:44;;;;;;;2.47;1.30;;;;;;;9.35;100.00;98008.03;5157607;27;20085;-62
2023/10/23 05:04:10;;;;;;;1.25;1.10;;;;;;;8.94;100.00;98015.66;5157487;27;20051;-62
2023/10/23 05:06:36;;;;;;;0.80;0.80;;;;;;;9.25;100.00;98024.38;5160849;27;20054;-62
2023/10/23 05:09:04;;;;;;;0.70;0.70;;;;;;;9.00;100.00;98026.97;5160709;27;20059;-62
2023/10/23 05:11:31;;;;;;;0.68;0.60;;;;;;;8.81;100.00;98036.25;5161185;27;20050;-62
2023/10/23 05:13:57;;;;;;;1.02;0.70;;;;;;;8.97;100.00;98044.94;5160760;27;20087;-62
2023/10/23 05:16:23;;;;;;;7.47;1.15;;;;;;;9.16;100.00;98057.53;5161154;27;20046;-65
2023/10/23 05:18:49;;;;;;;2.40;0.85;;;;;;;9.26;100.00;98058.78;5160062;27;20142;-65
2023/10/23 05:21:15;;;;;;;0.80;0.80;;;;;;;9.21;100.00;98067.34;5160547;27;20054;-63
2023/10/23 05:23:42;;;;;;;0.80;0.80;;;;;;;9.16;100.00;98069.28;5157629;27;20130;-61
2023/10/23 05:26:10;;;;;;;3.03;0.68;;;;;;;9.12;100.00;98082.13;5139432;28;20066;-64
2023/10/23 05:28:39;;;;;;;1.55;0.65;;;;;;;8.99;100.00;98085.56;5139717;28;20058;-64
2023/10/23 05:31:05;;;;;;;0.68;0.60;;;;;;;9.10;100.00;98092.69;5139571;28;20047;-65
2023/10/23 05:33:32;;;;;;;2.92;1.20;;;;;;;9.02;100.00;98101.19;5139854;28;20082;-69
2023/10/23 05:36:04;;;;;;;0.55;0.55;;;;;;;9.05;100.00;98111.38;5139198;28;20103;-68
2023/10/23 05:38:30;;;;;;;8.90;2.00;;;;;;;9.02;100.00;98115.66;5139537;27;20050;-70
2023/10/23 05:40:56;;;;;;;8.43;3.80;;;;;;;9.15;100.00;98107.94;5139179;28;20180;-67
2023/10/23 05:43:23;;;;;;;0.80;0.75;;;;;;;9.14;100.00;98118.09;5139889;28;20130;-70
2023/10/23 05:45:49;;;;;;;1.95;1.38;;;;;;;9.18;100.00;98120.84;5139139;28;20138;-67
2023/10/23 05:48:15;;;;;;;3.13;0.70;;;;;;;9.02;100.00;98136.75;5139597;27;20078;-68
2023/10/23 05:50:41;;;;;;;7.40;5.47;;;;;;;9.10;100.00;98138.38;5139433;28;20083;-68
2023/10/23 05:53:06;;;;;;;2.40;1.20;;;;;;;9.13;100.00;98146.59;5139244;28;20051;-67
2023/10/23 05:55:34;;;;;;;3.28;1.92;;;;;;;9.36;100.00;98146.38;5139168;28;20184;-67
2023/10/23 05:58:00;;;;;;;11.38;4.72;;;;;;;9.24;100.00;98162.31;5138888;28;20435;-70
2023/10/23 06:00:27;;;;;;;2.00;0.88;;;;;;;9.28;100.00;98152.94;5139126;28;20137;-70
2023/10/23 06:02:53;;;;;;;0.93;0.90;;;;;;;9.32;100.00;98161.19;5138961;28;20062;-66
2023/10/23 06:05:19;;;;;;;2.38;1.98;;;;;;;9.36;100.00;98173.72;5139450;28;20043;-66
2023/10/23 06:07:45;;;;;;;3.03;1.13;;;;;;;9.03;100.00;98158.25;5139063;28;20054;-68
2023/10/23 06:10:11;;;;;;;1.83;0.90;;;;;;;9.10;100.00;98169.25;5139250;28;20390;-73
2023/10/23 06:12:37;;;;;;;0.43;0.43;;;;;;;9.08;100.00;98190.69;5138909;28;20320;-68
2023/10/23 06:15:03;;;;;;;1.33;0.90;;;;;;;9.06;100.00;98190.28;5139052;28;20154;-64
2023/10/23 06:17:30;;;;;;;0.68;0.68;;;;;;;8.94;100.00;98198.78;5138506;27;20078;-64
2023/10/23 06:19:56;;;;;;;1.42;0.90;;;;;;;8.95;100.00;98192.16;5138627;27;20416;-67
2023/10/23 06:22:22;;;;;;;7.70;1.30;;;;;;;8.85;100.00;98207.28;5138645;27;20061;-69
2023/10/23 06:24:48;;;;;;;2.42;1.27;;;;;;;8.92;100.00;98199.16;5138779;28;20091;-63
2023/10/23 06:27:14;;;;;;;2.80;1.17;;;;;;;8.81;100.00;98231.06;5138774;27;20139;-67
2023/10/23 06:29:40;;;;;;;4.53;1.00;;;;;;;8.70;100.00;98222.78;5138365;28;20058;-64
2023/10/23 06:32:06;;;;;;;3.67;0.73;;;;;;;8.63;100.00;98217.25;5138950;27;20100;-63
2023/10/23 06:34:33;;;;;;;6.10;0.98;;;;;;;8.61;100.00;98227.75;5138429;28;20043;-66
2023/10/23 06:36:59;;;;;;;6.00;1.63;;;;;;;8.60;100.00;98234.38;5138468;28;20151;-62
2023/10/23 06:39:25;;;;;;;1.73;0.65;;;;;;;8.79;100.00;98240.78;5138371;27;20058;-65
2023/10/23 06:41:51;;;;;;;1.38;0.90;;;;;;;8.45;100.00;98232.63;5138703;27;20086;-64
2023/10/23 06:44:17;;;;;;;1.13;0.88;;;;;;;8.57;100.00;98234.34;5138516;28;20055;-63
2023/10/23 06:46:43;;;;;;;1.10;0.63;;;;;;;8.37;100.00;98247.34;5138290;28;20457;-63
2023/10/23 06:49:09;;;;;;;0.98;0.70;;;;;;;8.45;100.00;98255.28;5138094;27;20085;-62
2023/10/23 06:51:36;;;;;;;4.15;1.35;;;;;;;8.34;100.00;98257.06;5137758;27;20084;-64
2023/10/23 06:54:03;;;;;;;2.15;0.73;;;;;;;8.34;100.00;98268.00;5137951;28;20306;-68
2023/10/23 06:56:29;;;;;;;2.90;0.63;;;;;;;8.44;100.00;98261.13;5137997;28;20091;-64
2023/10/23 06:58:56;;;;;;;1.63;0.80;;;;;;;8.41;100.00;98276.28;5138124;28;20106;-67
2023/10/23 07:01:22;;;;;;;1.75;0.77;;;;;;;8.39;100.00;98281.34;5137656;27;20203;-63
2023/10/23 07:03:48;;;;;;;2.10;1.25;;;;;;;8.31;100.00;98292.53;5137822;27;20084;-63
2023/10/23 07:06:13;;;;;;;0.95;0.88;;;;;;;8.30;100.00;98302.66;5137966;28;20190;-65
2023/10/23 07:08:40;;;;;;;1.55;1.45;;;;;;;8.20;100.00;98308.78;5138229;28;20264;-68
2023/10/23 07:11:14;;;;;;;0.80;0.80;;;;;;;8.30;100.00;98321.78;5137665;28;20073;-66
2023/10/23 07:13:39;;;;;;;0.73;0.73;;;;;;;8.05;100.00;98317.91;5138273;28;20130;-66
2023/10/23 07:16:06;;;;;;;1.15;1.05;;;;;;;8.02;100.00;98325.69;5137689;28;20047;-63
2023/10/23 07:18:31;;;;;;;2.10;1.60;;;;;;;8.34;100.00;98319.88;5137825;27;20153;-64
2023/10/23 07:20:59;;;;;;;0.90;0.90;;;;;;;8.12;100.00;98320.75;5137577;28;20066;-65
2023/10/23 07:23:26;;;;;;;1.02;0.70;;;;;;;7.97;100.00;98334.19;5137830;28;20317;-62
2023/10/23 07:26:03;;;;;;;0.70;0.70;;;;;;;7.93;100.00;98332.56;5137781;28;20138;-64
2023/10/23 07:28:29;;;;;;;2.15;0.90;;;;;;;8.11;100.00;98328.16;5136874;27;20047;-65
2023/10/23 07:30:56;;;;;;;0.93;0.93;;;;;;;7.91;100.00;98334.88;5138371;28;20302;-63
2023/10/23 07:33:22;;;;;;;3.42;0.82;;;;;;;7.91;100.00;98349.31;5137550;28;20433;-63
2023/10/23 07:35:47;;;;;;;1.55;0.80;;;;;;;7.88;100.00;98338.34;5138007;27;20062;-62
2023/10/23 07:38:13;;;;;;;1.23;0.70;;;;;;;7.75;100.00;98345.94;5137254;27;20127;-62
2023/10/23 07:40:42;;;;;;;1.45;0.77;;;;;;;7.87;100.00;98347.69;5137757;27;20078;-61
2023/10/23 07:43:10;;;;;;;1.70;1.00;;;;;;;8.00;100.00;98343.59;5137780;28;20096;-63
2023/10/23 07:45:38;;;;;;;4.97;1.45;;;;;;;8.12;100.00;98348.03;5137686;28;20059;-61
2023/10/23 07:48:04;;;;;;;0.82;0.82;;;;;;;8.08;100.00;98344.47;5137595;28;20147;-65
2023/10/23 07:50:32;;;;;;;2.85;1.20;;;;;;;8.14;100.00;98349.25;5136847;28;20086;-64
2023/10/23 07:52:58;;;;;;;0.90;0.90;;;;;;;8.19;100.00;98348.13;5137469;27;20051;-64
2023/10/23 07:55:24;;;;;;;1.02;0.85;;;;;;;8.19;100.00;98348.13;5137151;28;20047;-65
2023/10/23 07:57:50;;;;;;;0.60;0.60;;;;;;;8.17;100.00;98359.44;5137420;27;20051;-64
2023/10/23 08:00:17;;;;;;;2.17;1.10;;;;;;;8.00;100.00;98338.91;5137246;28;20236;-64
2023/10/23 08:02:43;;;;;;;1.13;1.02;;;;;;;8.18;100.00;98338.38;5137200;28;20047;-64
2023/10/23 08:05:09;;;;;;;4.13;1.20;;;;;;;8.17;100.00;98347.75;5136782;28;20143;-64
2023/10/23 08:07:35;;;;;;;5.97;0.93;;;;;;;8.03;100.00;98364.69;5137392;28;20107;-61
2023/10/23 08:10:01;;;;;;;2.85;0.90;;;;;;;8.11;100.00;98384.69;5136700;27;20465;-62
2023/10/23 08:12:27;;;;;;;0.90;0.65;;;;;;;8.13;100.00;98385.09;5136685;28;20082;-62
2023/10/23 08:14:53;;;;;;;1.08;0.98;;;;;;;8.15;100.00;98410.88;5137238;28;20101;-63
2023/10/23 08:17:20;;;;;;;0.80;0.77;;;;;;;8.10;100.00;98404.97;5137061;27;20096;-65
2023/10/23 08:19:46;;;;;;;0.75;0.75;;;;;;;8.05;100.00;98406.06;5136305;27;20062;-64
2023/10/23 08:22:12;;;;;;;2.38;0.82;;;;;;;8.01;100.00;98411.47;5136859;28;20047;-62
2023/10/23 08:24:38;;;;;;;1.02;0.90;;;;;;;8.18;100.00;98431.22;5136757;28;20107;-63
2023/10/23 08:27:04;;;;;;;5.45;0.90;;;;;;;8.25;100.00;98428.59;5136788;28;20051;-64
2023/10/23 08:29:30;;;;;;;1.67;0.63;;;;;;;8.42;100.00;98416.38;5137146;28;20061;-65
2023/10/23 08:31:57;;;;;;;1.45;0.93;;;;;;;8.30;100.00;98400.16;5136886;27;20055;-62
2023/10/23 08:34:24;;;;;;;3.33;0.70;;;;;;;8.38;100.00;98418.28;5136978;28;20051;-63
2023/10/23 08:36:49;;;;;;;2.75;1.10;;;;;;;8.16;100.00;98411.66;5136582;27;20257;-63
2023/10/23 08:39:16;;;;;;;0.80;0.80;;;;;;;8.39;100.00;98428.81;5136975;27;20419;-62
2023/10/23 08:41:42;;;;;;;1.08;0.80;;;;;;;8.30;100.00;98424.75;5140430;28;20055;-64
2023/10/23 08:44:08;;;;;;;3.03;1.48;;;;;;;8.32;100.00;98456.00;5140486;28;20047;-64
2023/10/23 08:46:34;;;;;;;3.25;1.05;;;;;;;8.47;100.00;98459.78;5140155;28;20401;-62
2023/10/23 08:49:01;;;;;;;0.75;0.75;;;;;;;8.45;100.00;98465.59;5140296;27;20137;-61
2023/10/23 08:51:28;;;;;;;0.60;0.60;;;;;;;8.13;100.00;98456.91;5140287;28;20051;-64
2023/10/23 08:54:00;;;;;;;0.85;0.73;;;;;;;8.17;100.00;98473.31;5140210;28;20134;-62
2023/10/23 08:56:28;;;;;;;0.55;0.55;;;;;;;8.37;100.00;98458.44;5140446;28;20051;-66
2023/10/23 08:58:59;;;;;;;0.73;0.68;;;;;;;8.36;100.00;98464.25;5139929;28;20055;-64
2023/10/23 09:01:26;;;;;;;5.68;3.13;;;;;;;8.33;100.00;98476.72;5140374;28;20047;-63
2023/10/23 09:03:52;;;;;;;2.05;0.60;;;;;;;8.39;100.00;98469.78;5140047;28;20138;-63
2023/10/23 09:06:18;;;;;;;0.68;0.68;;;;;;;8.20;100.00;98467.13;5140466;28;20309;-65
2023/10/23 09:08:45;;;;;;;0.88;0.88;;;;;;;8.23;100.00;98478.13;5140097;28;20058;-65
2023/10/23 09:11:11;;;;;;;1.85;0.80;;;;;;;8.24;100.00;98484.38;5139781;27;20059;-62
2023/10/23 09:13:38;;;;;;;2.38;1.15;;;;;;;8.25;100.00;98505.03;5140137;27;20051;-64
2023/10/23 09:16:05;;;;;;;1.17;0.80;;;;;;;7.99;100.00;98484.72;5139680;28;20417;-63
2023/10/23 09:18:32;;;;;;;0.75;0.75;;;;;;;8.04;100.00;98508.22;5139971;28;20056;-64
2023/10/23 09:20:58;;;;;;;0.98;0.85;;;;;;;8.18;100.00;98511.19;5140024;27;20078;-65
2023/10/23 09:23:23;;;;;;;0.63;0.63;;;;;;;8.18;100.00;98502.97;5140309;27;20055;-64
2023/10/23 09:25:56;;;;;;;0.75;0.75;;;;;;;8.25;100.00;98499.59;5139878;28;20050;-63
2023/10/23 09:28:22;;;;;;;0.70;0.70;;;;;;;8.17;100.00;98493.22;5140155;27;20066;-64
2023/10/23 09:30:48;;;;;;;0.70;0.70;;;;;;;8.00;100.00;98508.16;5139726;28;20086;-63
2023/10/23 09:33:14;;;;;;;0.70;0.70;;;;;;;8.18;100.00;98524.81;5139512;28;20046;-64
2023/10/23 09:35:40;;;;;;;0.80;0.80;;;;;;;8.33;100.00;98520.41;5139585;27;20485;-62
2023/10/23 09:38:11;;;;;;;0.70;0.70;;;;;;;8.15;100.00;98498.25;5139776;28;20051;-62
2023/10/23 09:40:37;;;;;;;2.38;1.00;;;;;;;8.26;100.00;98520.25;5139569;28;20578;-63
2023/10/23 09:43:04;;;;;;;0.70;0.70;;;;;;;8.20;100.00;98511.63;5139615;28;20141;-65
2023/10/23 09:45:32;;;;;;;0.70;0.70;;;;;;;8.16;100.00;98520.88;5139708;28;20296;-64
2023/10/23 09:47:59;;;;;;;0.60;0.52;;;;;;;8.34;100.00;98521.19;5139466;28;20142;-62
2023/10/23 09:50:27;;;;;;;0.70;0.70;;;;;;;8.36;100.00;98524.31;5139336;27;20051;-64
2023/10/23 09:52:56;;;;;;;0.70;0.70;;;;;;;8.00;100.00;98534.66;5139323;28;20051;-64
2023/10/23 09:55:24;;;;;;;0.70;0.70;;;;;;;7.89;100.00;98550.03;5139603;27;20400;-63
2023/10/23 09:57:53;;;;;;;0.60;0.60;;;;;;;7.99;100.00;98572.06;5139157;27;20057;-62
2023/10/23 10:00:22;;;;;;;0.95;0.75;;;;;;;8.07;100.00;98583.94;5139524;28;20141;-63
2023/10/23 10:02:53;;;;;;;0.50;0.50;;;;;;;7.94;100.00;98596.94;5139073;27;20336;-63
2023/10/23 10:05:25;;;;;;;0.95;0.73;;;;;;;8.15;100.00;98598.50;5139436;28;20050;-64
2023/10/23 10:08:00;;;;;;;0.50;0.50;;;;;;;8.14;100.00;98594.97;5139498;28;20138;-63
2023/10/23 10:10:28;;;;;;;0.68;0.68;;;;;;;8.13;100.00;98600.78;5139029;28;20421;-64
2023/10/23 10:12:55;;;;;;;0.63;0.63;;;;;;;8.25;100.00;98608.81;5139184;27;20062;-64
2023/10/23 10:15:22;;;;;;;0.60;0.60;;;;;;;8.19;100.00;98621.19;5138801;27;20385;-63
2023/10/23 10:17:49;;;;;;;0.93;0.73;;;;;;;8.20;100.00;98622.78;5139239;28;20104;-63
2023/10/23 10:20:18;;;;;;;2.20;0.73;;;;;;;8.24;100.00;98640.00;5138787;28;20501;-63
2023/10/23 10:22:45;;;;;;;1.55;1.45;;;;;;;8.11;100.00;98636.66;5139077;28;20047;-64
2023/10/23 10:25:12;;;;;;;2.00;1.08;;;;;;;8.20;100.00;98647.34;5138970;27;20081;-63
2023/10/23 10:27:38;;;;;;;3.25;1.75;;;;;;;8.30;100.00;98652.22;5138726;28;20074;-63
2023/10/23 10:30:05;;;;;;;2.05;1.02;;;;;;;8.57;100.00;98649.59;5138902;28;20147;-64
2023/10/23 10:32:33;;;;;;;0.95;0.95;;;;;;;8.72;100.00;98657.66;5138658;27;20050;-63
2023/10/23 10:35:01;;;;;;;1.08;1.00;;;;;;;8.71;100.00;98639.69;5139150;28;20043;-63
2023/10/23 10:37:30;;;;;;;1.13;1.00;;;;;;;8.52;100.00;98637.03;5138659;27;20077;-64
2023/10/23 10:40:08;;;;;;;0.80;0.80;;;;;;;8.87;100.00;98633.31;5138849;28;20107;-64
2023/10/23 10:42:39;;;;;;;1.02;0.93;;;;;;;8.93;100.00;98629.13;5138579;28;20060;-64
2023/10/23 10:45:17;;;;;;;1.75;0.85;;;;;;;8.84;100.00;98632.09;5138486;28;20059;-64
2023/10/23 10:47:49;;;;;;;5.75;0.98;;;;;;;8.84;100.00;98610.22;5138914;28;20047;-63
2023/10/23 10:50:31;;;;;;;1.63;1.17;;;;;;;8.72;100.00;98630.34;5138520;27;20051;-64
2023/10/23 10:53:00;;;;;;;0.95;0.95;;;;;;;8.76;100.00;98635.06;5138875;27;20043;-64
2023/10/23 10:55:26;;;;;;;2.42;1.10;;;;;;;8.93;100.00;98637.34;5138599;28;20187;-64
2023/10/23 10:57:53;;;;;;;1.08;1.00;;;;;;;8.72;100.00;98624.88;5138640;28;20043;-64
2023/10/23 11:00:19;;;;;;;3.60;1.40;;;;;;;8.95;100.00;98627.59;5138361;28;20051;-64
2023/10/23 11:02:45;;;;;;;0.80;0.80;;;;;;;8.86;100.00;98634.47;5137828;27;20134;-63
2023/10/23 11:05:13;;;;;;;1.00;1.00;;;;;;;9.12;100.00;98637.22;5138363;28;20451;-63
2023/10/23 11:07:39;;;;;;;1.20;1.10;;;;;;;8.96;100.00;98642.03;5138575;28;20183;-63
2023/10/23 11:10:06;;;;;;;1.45;0.98;;;;;;;9.00;100.00;98651.09;5138028;28;20141;-64
2023/10/23 11:12:32;;;;;;;1.00;1.00;;;;;;;9.19;100.00;98636.53;5138124;27;20133;-64
2023/10/23 11:14:59;;;;;;;2.92;1.35;;;;;;;9.26;100.00;98638.59;5138062;27;20142;-64
2023/10/23 11:17:25;;;;;;;1.38;1.27;;;;;;;9.20;100.00;98632.66;5137939;27;20058;-62
2023/10/23 11:19:51;;;;;;;1.00;0.98;;;;;;;9.29;100.00;98621.44;5137957;28;20086;-63
2023/10/23 11:22:18;;;;;;;1.58;1.30;;;;;;;9.42;100.00;98641.94;5137998;28;20055;-62
2023/10/23 11:24:45;;;;;;;1.45;1.10;;;;;;;9.43;100.00;98629.84;5137958;28;20074;-65
2023/10/23 11:27:11;;;;;;;1.73;1.60;;;;;;;9.59;100.00;98621.44;5137850;28;20051;-64